Flight Track Log - Related Links

Times and Time Zones

All times are in EST time to prevent confusion due to time zone crossing. See the N6198Q flight status page for this flight to view local times or setup timezone preferences in your user account.

Time Position Orientation Groundspeed Altitude Reporting Facility
EST Latitude Longitude Course Direction KTS MPH feet Rate Location/Type
Fri 04:37:24 PM 26.4142 -81.0064 332° Northwest 108 124 2,600  Level Miami Center
Fri 04:38:24 PM 26.4428 -81.0236 332° Northwest 108 124 2,700  Climbing Miami Center
Fri 04:39:24 PM 26.4675 -81.0408 328° Northwest 108 124 2,600 -100 Descending Miami Center
Fri 04:40:24 PM 26.4961 -81.0628 326° Northwest 113 130 2,500 -50 Descending Miami Center
Fri 04:41:24 PM 26.5206 -81.0822 325° Northwest 118 136 2,500  Level Miami Center
Fri 04:42:24 PM 26.5431 -81.0992 326° Northwest 112 129 2,500  Level Miami Center
Fri 04:43:24 PM 26.5717 -81.1189 328° Northwest 112 129 2,500  Level Miami Center
Fri 04:44:24 PM 26.5961 -81.1383 325° Northwest 107 123 2,500 -50 Level Miami Center
Fri 04:45:24 PM 26.6208 -81.1531 332° Northwest 107 123 2,400  Descending Miami Center
Fri 04:46:24 PM 26.6453 -81.1725 325° Northwest 107 123 2,500  Climbing Miami Center
Fri 04:47:24 PM 26.6717 -81.1944 323° Northwest 107 123 2,400  Descending Miami Center
Fri 04:48:24 PM 26.6986 -81.2069 337° Northwest 139 160 2,500 50 Climbing Miami Center
Fri 04:49:24 PM 26.7231 -81.2242 328° Northwest 121 139 2,500  Level Miami Center
Fri 04:50:24 PM 26.7494 -81.2461 323° Northwest 121 139 2,500  Level Miami Center
Fri 04:51:24 PM 26.7781 -81.2681 326° Northwest 111 128 2,500  Level Miami Center
Fri 04:55:36 PM 26.8886 -81.3422 291° West 113 130 2,500 19 Level Miami Center
Fri 04:56:36 PM 26.9172 -81.3619 328° Northwest 113 130 2,600  Climbing Miami Center
Fri 04:57:36 PM 26.9419 -81.3769 332° Northwest 113 130 2,500 -50 Descending Miami Center
Fri 04:58:36 PM 26.9706 -81.3967 328° Northwest 113 130 2,500  Level Miami Center
Fri 04:59:36 PM 26.9969 -81.4139 330° Northwest 113 130 2,500 -50 Level Miami Center
Fri 05:00:36 PM 27.0278 -81.4314 333° Northwest 113 130 2,400 -50 Descending Miami Center
Fri 05:01:36 PM 27.0567 -81.4467 335° Northwest 113 130 2,400  Level Miami Center
Fri 05:02:36 PM 27.0831 -81.4617 333° Northwest 113 130 2,400 50 Level Miami Center
Fri 05:03:36 PM 27.1119 -81.4767 335° Northwest 113 130 2,500 50 Climbing Miami Center
Fri 05:04:36 PM 27.1383 -81.4964 326° Northwest 113 130 2,500  Level Miami Center
Fri 05:05:36 PM 27.1650 -81.5139 330° Northwest 113 130 2,500  Level Miami Center
Fri 05:06:36 PM 27.1936 -81.5314 331° Northwest 113 130 2,500 -50 Level Miami Center
Fri 05:07:36 PM 27.2225 -81.5467 335° Northwest 113 130 2,400 -50 Descending Miami Center
Fri 05:08:36 PM 27.2511 -81.5664 329° Northwest 113 130 2,400  Level Miami Center
Fri 05:09:36 PM 27.2775 -81.5883 324° Northwest 113 130 2,400  Level Miami Center
Fri 05:10:36 PM 27.3017 -81.6153 315° West 119 137 2,400 50 Level Miami Center
Fri 05:11:36 PM 27.3258 -81.6347 324° Northwest 119 137 2,500 50 Climbing Miami Center
Fri 05:12:36 PM 27.3525 -81.6547 326° Northwest 119 137 2,500 -50 Level Miami Center
Fri 05:13:36 PM 27.3789 -81.6744 326° Northwest 119 137 2,400 50 Descending Miami Center
Fri 05:14:36 PM 27.4056 -81.6897 333° Northwest 114 131 2,600 100 Climbing Miami Center
Fri 05:15:36 PM 27.4342 -81.7072 332° Northwest 114 131 2,600 -50 Level Miami Center
Fri 05:16:36 PM 27.4608 -81.7247 330° Northwest 114 131 2,500 -50 Descending Miami Center
Fri 05:17:36 PM 27.4872 -81.7444 326° Northwest 114 131 2,500 -250 Level Miami Center
Fri 05:18:36 PM 27.5158 -81.7597 335° Northwest 114 131 2,000 -200 Descending Miami Center
Fri 05:19:36 PM 27.5422 -81.7797 326° Northwest 114 131 2,100 50 Climbing Miami Center
Fri 05:20:36 PM 27.5647 -81.7947 329° Northwest 114 131 2,100 200 Level Miami Center
Fri 05:21:36 PM 27.5892 -81.8144 324° Northwest 114 131 2,500 200 Climbing Miami Center
Fri 05:22:36 PM 27.6075 -81.8247 334° Northwest 114 131 2,500  Level Miami Center
Fri 05:23:36 PM 27.6400 -81.8517 324° Northwest 114 131 2,500  Level Miami Center
Fri 05:24:36 PM 27.6706 -81.8767 324° Northwest 114 131 2,500  Level Miami Center
Fri 05:25:36 PM 27.6886 -81.8914 324° Northwest 114 131 2,500  Level Miami Center
Fri 05:26:36 PM 27.6886 -81.8914 41° Northeast 114 131 2,500  Level Miami Center
Fri 05:27:36 PM 27.6886 -81.8914 41° Northeast 114 131 2,500  Level Miami Center
Fri 05:28:36 PM 27.6886 -81.8914 41° Northeast 114 131 2,500  Level Miami Center
Fri 05:29:36 PM 27.6886 -81.8914 41° Northeast 114 131 2,500  Level Miami Center
Fri 05:30:36 PM 27.8128 -81.9228 347° North 114 131 2,500 -150 Level Miami Center
Fri 05:31:36 PM 27.8461 -81.9242 358° North 127 146 2,200 -150 Descending Miami Center
Fri 05:32:36 PM 27.8753 -81.9278 354° North 113 130 2,200 150 Level Miami Center
Fri 05:33:36 PM 27.9106 -81.9364 348° North 113 130 2,500 150 Climbing Miami Center
Fri 05:34:36 PM 27.9414 -81.9425 350° North 113 130 2,500  Level Miami Center
Fri 05:36:00 PM 27.9679 -81.9894 303° West  Level FlightAware Approximate
Fri 05:43:00 PM 27.9833 -82.0167 326° Northwest  Level FlightAware Approximate
Fri 05:44:00 PM 27.9889 -82.0186 326° Northwest  Level Estimated
Fri 05:45:00 PM 27.9833 -82.0167 326° Northwest  Level FlightAware Approximate
Fri 05:46:00 PM 27.9889 -82.0186 326° Northwest  Level Estimated
Fri 05:47:00 PM 27.9833 -82.0167 326° Northwest  Level FlightAware Approximate
Fri 05:48:00 PM 27.9889 -82.0186 326° Northwest  Level Estimated
Fri 05:49:00 PM 27.9833 -82.0167 326° Northwest  Level FlightAware Approximate
Fri 05:50:00 PM 27.9889 -82.0186 326° Northwest  Level Estimated
Fri 05:51:00 PM 27.9833 -82.0167 326° Northwest  Level FlightAware Approximate

Login

Don't have an account? Register now (free) for customized features, flight alerts, and more!